Ocracoke, NC (27960)

9:29 PM EDT on September 23, 2014 (GMT -0400)
The Ocracoke Harbor Inn/Silver Lake | Change Station
CLOSE
Current Station
Personal Weather Station
Location: Ocracoke, NC
Elevation: 15 ft
Nearby Weather Stations

Elev 15 ft 35.11 °N, 75.98 °W | Updated 8 seconds ago

Overcast
Overcast
69.8 °F
Feels Like 69.8 °F
N
19.0
Wind Variable Wind from NE
Gusts 31.0 mph

Today
High -- | Low -- °F
--% Chance of Precip.
Yesterday
High -- | Low -- °F
Precip. -- in
6:52 AM 6:59 PM
Waning Crescent, 0% visible
Pressure 30.18 in
Visibility 10.0 miles
Clouds Few 2300 ft
Overcast 5000 ft
Dew Point 65 °F
Humidity 86%
Rainfall 0.00 in
Snow Depth Not available.
UV 0 out of 12
Pollen 5.30 out of 12
Air Quality Not available.
Flu Activity Not available.
METAR KHSE 240051Z AUTO 03012G25KT 10SM FEW023 OVC050 20/17 A3018 RMK AO2 PK WND 03026/2354 SLP220 T02000172 TSNO

More Conditions Fewer Conditions

Pressure 30.18 in
Visibility 10.0 miles
Clouds Few 2300 ft
Overcast 5000 ft
Dew Point 65 °F
Humidity 86%
Rainfall 0.00 in
Snow Depth Not available.
UV 0 out of 12
Pollen 5.30 out of 12
Air Quality Not available.
Flu Activity Not available.
METAR KHSE 240051Z AUTO 03012G25KT 10SM FEW023 OVC050 20/17 A3018 RMK AO2 PK WND 03026/2354 SLP220 T02000172 TSNO

More Conditions Fewer Conditions

10-Day Weather Forecast

Almanac

Astronomy

Sep. 23, 2014 Rise Set
Actual Time 6:52 AM EDT 6:59 PM EDT
Civil Twilight 6:27 AM EDT 7:24 PM EDT
Nautical Twilight 5:57 AM EDT 7:54 PM EDT
Astronomical Twilight 5:27 AM EDT 8:23 PM EDT
Moon 6:15 AM EDT (9/23) 6:37 PM EDT (9/23)
Length of Visible Light 12h 57m
Length of Day
12h 06m
Tomorrow will be 2m 11s shorter.
Waning Crescent, 0% of the Moon is Illuminated
Today
Waning Crescent
Sep 24
New
Oct 1
First Quarter
Oct 8
Full
Oct 15
Last Quarter

Today's Extremes

State Highs State Lows

Community

WunderPhotos

Upload Photos

1,755,844 photos uploaded!

Nearby

Snow Depth

Station Depth Elevation
No new snow has been reported.

Earthquake Activity

City Distance Mag. Time & Date
No recent earthquake activity has been reported nearby.
Minimum magnitude displayed is 2.5.

Coastal Water Temperatures

Place Temperature
Beaufort, NC 73.9 °F
Hatteras, NC 73.9 °F
Oregon Inlet Marina, NC 73.0 °F
Duck Pier, NC 73.0 °F
Johnny Mercer Pier, Wrightsville Beach, NC 78.1 °F

Nearby Weather Stations